createdAt,value
2023-08-05T00:02:15.360Z,16.60
2023-08-05T00:05:03.067Z,16.60
2023-08-05T00:07:52.139Z,16.60
2023-08-05T00:10:48.688Z,16.70
2023-08-05T00:13:36.195Z,16.70
2023-08-05T00:16:23.808Z,16.70
2023-08-05T00:19:11.390Z,16.70
2023-08-05T00:21:58.856Z,16.70
2023-08-05T00:24:46.536Z,16.70
2023-08-05T00:27:33.997Z,16.70
2023-08-05T00:30:21.652Z,16.70
2023-08-05T00:33:09.125Z,16.70
2023-08-05T00:35:56.631Z,16.60
2023-08-05T00:38:44.254Z,16.60
2023-08-05T00:41:31.754Z,16.60
2023-08-05T00:44:19.355Z,16.60
2023-08-05T00:47:07.262Z,16.60
2023-08-05T00:49:59.659Z,16.60
2023-08-05T00:52:47.816Z,16.60
2023-08-05T00:55:35.499Z,16.60
2023-08-05T00:58:24.278Z,16.60
2023-08-05T01:01:12.536Z,16.60
2023-08-05T01:04:00.110Z,16.50
2023-08-05T01:06:48.211Z,16.50
2023-08-05T01:09:36.398Z,16.50
2023-08-05T01:12:23.959Z,16.50
2023-08-05T01:15:11.662Z,16.50
2023-08-05T01:18:00.731Z,16.50
2023-08-05T01:20:54.612Z,16.60
2023-08-05T01:24:01.361Z,16.50
2023-08-05T01:26:51.071Z,16.60
2023-08-05T01:29:39.216Z,16.50
2023-08-05T01:32:28.902Z,16.50
2023-08-05T01:35:21.339Z,16.50
2023-08-05T01:38:08.917Z,16.40
2023-08-05T01:40:56.437Z,16.40
2023-08-05T01:43:44.400Z,16.40
2023-08-05T01:46:31.933Z,16.40
2023-08-05T01:49:19.644Z,16.40
2023-08-05T01:52:07.510Z,16.40
2023-08-05T01:54:55.097Z,16.40
2023-08-05T01:57:45.143Z,16.40
2023-08-05T02:00:32.732Z,16.40
2023-08-05T02:03:21.646Z,16.40
2023-08-05T02:06:09.434Z,16.40
2023-08-05T02:08:56.974Z,16.40
2023-08-05T02:11:44.563Z,16.40
2023-08-05T02:14:32.056Z,16.40
2023-08-05T02:17:20.104Z,16.40
2023-08-05T02:20:09.561Z,16.50
2023-08-05T02:22:57.054Z,16.50
2023-08-05T02:25:44.604Z,16.40
2023-08-05T02:28:32.203Z,16.40
2023-08-05T02:31:19.870Z,16.40
2023-08-05T02:34:07.366Z,16.40
2023-08-05T02:36:55.113Z,16.40
2023-08-05T02:39:42.769Z,16.40
2023-08-05T02:42:30.347Z,16.40
2023-08-05T02:45:17.921Z,16.40
2023-08-05T02:48:05.712Z,16.40
2023-08-05T02:50:56.175Z,16.40
2023-08-05T02:53:43.812Z,16.40
2023-08-05T02:56:35.077Z,16.40
2023-08-05T02:59:22.564Z,16.40
2023-08-05T03:02:10.528Z,16.40
2023-08-05T03:04:58.132Z,16.40
2023-08-05T03:07:45.658Z,16.40
2023-08-05T03:10:33.242Z,16.40
2023-08-05T03:13:20.806Z,16.50
2023-08-05T03:16:13.547Z,16.40
2023-08-05T03:19:01.148Z,16.40
2023-08-05T03:21:48.747Z,16.40
2023-08-05T03:24:36.239Z,16.50
2023-08-05T03:27:23.858Z,16.40
2023-08-05T03:30:11.640Z,16.50
2023-08-05T03:32:59.271Z,16.50
2023-08-05T03:35:47.341Z,16.40
2023-08-05T03:38:34.866Z,16.40
2023-08-05T03:41:22.389Z,16.40
2023-08-05T03:44:09.845Z,16.40
2023-08-05T03:46:57.539Z,16.40
2023-08-05T03:49:45.038Z,16.40
2023-08-05T03:52:32.655Z,16.40
2023-08-05T03:55:21.081Z,16.50
2023-08-05T03:58:09.059Z,16.40
2023-08-05T04:00:56.534Z,16.40
2023-08-05T04:03:44.463Z,16.40
2023-08-05T04:06:32.049Z,16.40
2023-08-05T04:09:20.607Z,16.40
2023-08-05T04:12:10.707Z,16.40
2023-08-05T04:15:00.223Z,16.40
2023-08-05T04:17:49.476Z,16.40
2023-08-05T04:20:37.765Z,16.40
2023-08-05T04:23:26.314Z,16.40
2023-08-05T04:26:14.372Z,16.40
2023-08-05T04:29:01.870Z,16.30
2023-08-05T04:31:50.172Z,16.30
2023-08-05T04:34:39.012Z,16.30
2023-08-05T04:37:26.571Z,16.30
2023-08-05T04:40:14.153Z,16.30
2023-08-05T04:43:03.464Z,16.30
2023-08-05T04:45:55.656Z,16.30
2023-08-05T04:48:43.304Z,16.30
2023-08-05T04:51:30.775Z,16.30
2023-08-05T04:54:18.399Z,16.30
2023-08-05T04:57:07.433Z,16.30
2023-08-05T04:59:54.995Z,16.20
2023-08-05T05:02:42.546Z,16.20
2023-08-05T05:05:30.115Z,16.20
2023-08-05T05:08:17.821Z,16.20
2023-08-05T05:11:05.369Z,16.10
2023-08-05T05:13:53.396Z,16.20
2023-08-05T05:16:41.001Z,16.10
2023-08-05T05:19:28.531Z,16.10
2023-08-05T05:22:20.068Z,16.10
2023-08-05T05:25:08.290Z,16.10
2023-08-05T05:27:55.850Z,16.10
2023-08-05T05:30:43.478Z,16.10
2023-08-05T05:33:31.051Z,16.10
2023-08-05T05:36:18.636Z,16.10
2023-08-05T05:39:06.135Z,16.10
2023-08-05T05:41:53.763Z,16.10
2023-08-05T05:44:41.840Z,16.10
2023-08-05T05:47:29.509Z,16.10
2023-08-05T05:50:17.877Z,16.10
2023-08-05T05:53:06.076Z,16.10
2023-08-05T05:55:56.719Z,16.10
2023-08-05T05:58:44.532Z,16.20
2023-08-05T06:01:32.428Z,16.20
2023-08-05T06:04:22.763Z,16.20
2023-08-05T06:07:11.132Z,16.30
2023-08-05T06:09:58.650Z,16.30
2023-08-05T06:12:46.157Z,16.30
2023-08-05T06:15:33.760Z,16.30
2023-08-05T06:18:21.293Z,16.30
2023-08-05T06:21:09.115Z,16.30
2023-08-05T06:23:56.629Z,16.30
2023-08-05T06:26:44.256Z,16.30
2023-08-05T06:29:31.892Z,16.30
2023-08-05T06:32:19.461Z,16.20
2023-08-05T06:35:07.701Z,16.20
2023-08-05T09:45:58.482Z,17.60
2023-08-05T09:48:46.108Z,17.70
2023-08-05T09:51:36.437Z,17.70
2023-08-05T09:54:32.071Z,17.70
2023-08-05T09:57:21.432Z,17.70
2023-08-05T10:00:12.341Z,17.70
2023-08-05T10:03:01.395Z,17.70
2023-08-05T10:05:51.052Z,17.80
2023-08-05T10:08:41.786Z,17.70
2023-08-05T10:11:30.142Z,17.70
2023-08-05T10:14:18.589Z,17.70
2023-08-05T10:17:08.279Z,17.70
2023-08-05T10:19:56.077Z,17.60
2023-08-05T10:23:08.859Z,17.60
2023-08-05T10:26:02.489Z,17.60
2023-08-05T10:28:49.995Z,17.60
2023-08-05T10:31:38.190Z,17.60
2023-08-05T10:34:25.889Z,17.60
2023-08-05T10:37:13.467Z,17.60
2023-08-05T10:40:08.375Z,17.60
2023-08-05T10:42:57.102Z,17.50
2023-08-05T10:45:45.476Z,17.50
2023-08-05T10:48:45.521Z,17.50
2023-08-05T10:51:34.351Z,17.40
2023-08-05T10:54:22.317Z,17.40
2023-08-05T10:57:35.628Z,17.30
2023-08-05T11:00:24.876Z,17.30
2023-08-05T11:03:49.510Z,17.20
2023-08-05T11:06:40.455Z,17.20
2023-08-05T11:09:28.733Z,17.20
2023-08-05T11:12:16.601Z,17.20
2023-08-05T11:15:05.004Z,17.20
2023-08-05T11:17:57.213Z,17.30
2023-08-05T11:20:48.040Z,17.30
2023-08-05T11:23:41.993Z,17.30
2023-08-05T11:26:29.819Z,17.30
2023-08-05T11:29:17.518Z,17.40
2023-08-05T11:32:05.353Z,17.40
2023-08-05T11:35:02.626Z,17.40
2023-08-05T11:37:50.351Z,17.40
2023-08-05T11:40:55.999Z,17.40
2023-08-05T11:43:43.765Z,17.40
2023-08-05T11:46:41.404Z,17.40
2023-08-05T11:49:36.016Z,17.40
2023-08-05T11:52:23.544Z,17.40
2023-08-05T11:55:11.668Z,17.40
2023-08-05T11:58:07.315Z,17.40
2023-08-05T12:01:01.599Z,17.40
2023-08-05T12:03:50.723Z,17.40
2023-08-05T12:06:40.730Z,17.40
2023-08-05T12:09:28.296Z,17.50
2023-08-05T12:12:21.906Z,17.50
2023-08-05T12:15:30.026Z,17.60
2023-08-05T12:18:19.603Z,17.60
2023-08-05T12:21:07.109Z,17.60
2023-08-05T12:23:54.687Z,17.60
2023-08-05T12:26:42.357Z,17.70
2023-08-05T12:29:29.801Z,17.70
2023-08-05T12:32:17.410Z,17.80
2023-08-05T12:35:07.215Z,17.80
2023-08-05T12:37:54.763Z,17.90
2023-08-05T12:40:42.358Z,17.90
2023-08-05T12:43:29.907Z,18.00
2023-08-05T12:46:17.410Z,18.10
2023-08-05T12:49:04.857Z,18.20
2023-08-05T12:51:52.613Z,18.40
2023-08-05T12:54:40.342Z,18.50
2023-08-05T12:57:28.034Z,18.50
2023-08-05T13:00:15.745Z,18.60
2023-08-05T13:03:03.708Z,18.70
2023-08-05T13:05:51.470Z,18.70
2023-08-05T13:08:39.075Z,18.70
2023-08-05T13:11:26.602Z,18.60
2023-08-05T13:14:17.238Z,18.50
2023-08-05T13:17:04.822Z,18.50
2023-08-05T13:19:52.289Z,18.40
2023-08-05T13:22:39.753Z,18.30
2023-08-05T13:25:27.313Z,18.10
2023-08-05T13:28:14.859Z,18.00
2023-08-05T13:31:04.466Z,18.00
2023-08-05T13:33:53.687Z,18.00
2023-08-05T13:36:41.329Z,18.00
2023-08-05T13:39:28.811Z,18.00
2023-08-05T13:42:16.694Z,18.00
2023-08-05T13:45:05.406Z,18.00
2023-08-05T13:47:53.700Z,18.00
2023-08-05T13:50:41.207Z,18.00
2023-08-05T13:53:28.700Z,18.00
2023-08-05T13:56:16.271Z,18.00
2023-08-05T13:59:04.248Z,18.00
2023-08-05T14:01:52.048Z,18.00
2023-08-05T14:04:44.957Z,17.90
2023-08-05T14:07:32.516Z,17.80
2023-08-05T14:10:19.986Z,17.80
2023-08-05T14:13:07.559Z,17.80
2023-08-05T14:15:55.176Z,17.80
2023-08-05T14:18:42.801Z,17.80
2023-08-05T14:21:30.289Z,17.80
2023-08-05T14:24:17.813Z,17.80
2023-08-05T14:27:05.959Z,17.80
2023-08-05T14:29:57.729Z,17.90
2023-08-05T14:32:54.269Z,17.90
2023-08-05T14:35:41.842Z,17.90
2023-08-05T14:38:29.330Z,17.90
2023-08-05T14:41:18.083Z,17.90
2023-08-05T14:44:05.658Z,17.90
2023-08-05T14:46:53.111Z,17.80
2023-08-05T14:49:40.731Z,17.80
2023-08-05T14:52:28.147Z,17.80
2023-08-05T14:55:16.990Z,17.80
2023-08-05T14:58:06.034Z,17.80
2023-08-05T15:00:53.846Z,17.80
2023-08-05T15:03:41.366Z,17.90
2023-08-05T15:06:30.001Z,17.90
2023-08-05T15:09:18.656Z,17.90
2023-08-05T15:12:06.689Z,17.80
2023-08-05T15:14:54.436Z,17.80
2023-08-05T15:17:42.792Z,17.70
2023-08-05T15:20:30.390Z,17.60
2023-08-05T15:23:30.098Z,17.60
2023-08-05T15:26:18.580Z,17.60
2023-08-05T15:29:06.534Z,17.40
2023-08-05T15:31:54.256Z,17.40
2023-08-05T15:34:42.493Z,17.30
2023-08-05T15:37:30.099Z,17.30
2023-08-05T15:40:17.678Z,17.20
2023-08-05T15:43:05.261Z,17.20
2023-08-05T15:45:57.416Z,17.20
2023-08-05T15:48:45.120Z,17.20
2023-08-05T15:51:33.835Z,17.20
2023-08-05T15:54:21.406Z,17.30
2023-08-05T15:57:08.927Z,17.30
2023-08-05T15:59:56.374Z,17.30
2023-08-05T16:02:44.117Z,17.30
2023-08-05T16:05:31.620Z,17.30
2023-08-05T16:08:19.078Z,17.30
2023-08-05T16:11:13.696Z,17.30
2023-08-05T16:14:01.372Z,17.30
2023-08-05T16:16:48.939Z,17.30
2023-08-05T16:19:36.406Z,17.30
2023-08-05T16:22:24.502Z,17.30
2023-08-05T16:25:13.391Z,17.20
2023-08-05T16:28:00.906Z,17.20
2023-08-05T16:30:53.799Z,17.20
2023-08-05T16:33:42.067Z,17.20
2023-08-05T16:36:30.771Z,17.20
2023-08-05T16:39:18.299Z,17.30
2023-08-05T16:42:06.989Z,17.20
2023-08-05T16:44:54.480Z,17.20
2023-08-05T16:47:42.158Z,17.30
2023-08-05T16:50:29.953Z,17.30
2023-08-05T16:53:17.476Z,17.30
2023-08-05T16:56:05.847Z,17.30
2023-08-05T16:58:53.979Z,17.30
2023-08-05T17:01:41.496Z,17.30
2023-08-05T17:04:29.000Z,17.30
2023-08-05T17:07:16.460Z,17.30
2023-08-05T17:10:04.516Z,17.20
2023-08-05T17:12:53.188Z,17.20
2023-08-05T17:15:45.688Z,17.20
2023-08-05T17:18:33.125Z,17.10
2023-08-05T17:21:20.609Z,17.10
2023-08-05T17:24:10.080Z,17.00
2023-08-05T17:26:57.568Z,17.00
2023-08-05T17:29:46.117Z,17.00
2023-08-05T17:32:33.692Z,16.90
2023-08-05T17:35:21.184Z,16.90
2023-08-05T17:38:08.780Z,16.80
2023-08-05T17:40:56.229Z,16.80
2023-08-05T17:43:43.702Z,16.80
2023-08-05T17:46:31.448Z,16.80
2023-08-05T17:49:19.130Z,16.70
2023-08-05T17:52:07.221Z,16.70
2023-08-05T17:54:54.693Z,16.60
2023-08-05T17:57:42.260Z,16.60
2023-08-05T18:00:29.902Z,16.60
2023-08-05T18:03:17.562Z,16.60
2023-08-05T18:06:16.053Z,16.50
2023-08-05T18:09:08.836Z,16.50
2023-08-05T18:11:56.507Z,16.50
2023-08-05T18:14:47.879Z,16.50
2023-08-05T18:17:35.432Z,16.50
2023-08-05T18:20:24.764Z,16.50
2023-08-05T18:23:12.273Z,16.40
2023-08-05T18:26:00.898Z,16.40
2023-08-05T18:28:50.717Z,16.40
2023-08-05T18:31:38.747Z,16.40
2023-08-05T18:34:26.535Z,16.40
2023-08-05T18:37:14.022Z,16.40
2023-08-05T18:40:01.567Z,16.40
2023-08-05T18:42:49.042Z,16.40
2023-08-05T18:45:37.343Z,16.40
2023-08-05T18:48:26.158Z,16.30
2023-08-05T18:51:13.654Z,16.30
2023-08-05T18:54:01.223Z,16.30
2023-08-05T18:56:48.955Z,16.30
2023-08-05T18:59:36.455Z,16.30
2023-08-05T19:02:24.965Z,16.30
2023-08-05T19:05:14.830Z,16.30
2023-08-05T19:08:02.601Z,16.30
2023-08-05T19:10:50.177Z,16.30
2023-08-05T19:13:37.929Z,16.30
2023-08-05T19:16:25.755Z,16.30
2023-08-05T19:19:13.474Z,16.30
2023-08-05T19:22:00.959Z,16.20
2023-08-05T19:24:48.473Z,16.20
2023-08-05T19:27:52.230Z,16.20
2023-08-05T19:30:44.638Z,16.20
2023-08-05T19:33:32.360Z,16.10
2023-08-05T19:36:20.724Z,16.10
2023-08-05T19:39:08.314Z,16.20
2023-08-05T19:41:57.435Z,16.10
2023-08-05T19:44:48.293Z,16.10
2023-08-05T19:47:41.070Z,16.10
2023-08-05T19:50:28.812Z,16.10
2023-08-05T19:53:16.461Z,16.10
2023-08-05T19:56:04.255Z,16.10
2023-08-05T19:58:51.914Z,16.10
2023-08-05T20:01:39.350Z,16.10
2023-08-05T20:04:30.340Z,16.10
2023-08-05T20:07:18.290Z,16.10
2023-08-05T20:10:06.530Z,16.10
2023-08-05T20:12:54.139Z,16.10
2023-08-05T20:15:43.025Z,16.10
2023-08-05T20:18:30.634Z,16.10
2023-08-05T20:21:18.251Z,16.10
2023-08-05T20:24:05.926Z,16.10
2023-08-05T20:26:53.578Z,16.10
2023-08-05T20:29:41.125Z,16.10
2023-08-05T20:32:28.666Z,16.10
2023-08-05T20:35:16.821Z,16.10
2023-08-05T20:38:04.516Z,16.10
2023-08-05T20:40:51.999Z,16.10
2023-08-05T20:43:40.115Z,16.20
2023-08-05T20:46:29.715Z,16.20
2023-08-05T20:49:17.414Z,16.20
2023-08-05T20:52:05.659Z,16.20
2023-08-05T20:54:53.515Z,16.30
2023-08-05T20:57:40.996Z,16.30
2023-08-05T21:00:28.940Z,16.30
2023-08-05T21:03:16.435Z,16.30
2023-08-05T21:06:05.352Z,16.30
2023-08-05T21:08:52.879Z,16.30
2023-08-05T21:11:40.529Z,16.30
2023-08-05T21:14:28.278Z,16.30
2023-08-05T21:17:15.825Z,16.30
2023-08-05T21:20:03.420Z,16.30
2023-08-05T21:22:52.691Z,16.30
2023-08-05T21:25:40.459Z,16.30
2023-08-05T21:28:27.992Z,16.30
2023-08-05T21:31:17.262Z,16.30
2023-08-05T21:34:06.252Z,16.30
2023-08-05T21:36:53.776Z,16.30
2023-08-05T21:39:43.215Z,16.30
2023-08-05T21:42:30.742Z,16.30
2023-08-05T21:45:18.577Z,16.30
2023-08-05T21:48:06.105Z,16.20
2023-08-05T21:50:53.622Z,16.20
2023-08-05T21:53:41.164Z,16.20
2023-08-05T21:56:28.720Z,16.20
2023-08-05T21:59:16.270Z,16.20
2023-08-05T22:02:03.957Z,16.20
2023-08-05T22:04:53.121Z,16.10
2023-08-05T22:07:40.586Z,16.10
2023-08-05T22:10:28.176Z,16.10
2023-08-05T22:13:15.829Z,16.10
2023-08-05T22:16:03.530Z,16.10
2023-08-05T22:18:52.494Z,16.20
2023-08-05T22:21:40.044Z,16.20
2023-08-05T22:24:40.751Z,16.20
2023-08-05T22:27:29.610Z,16.20
2023-08-05T22:30:17.125Z,16.10
2023-08-05T22:33:04.764Z,16.10
2023-08-05T22:35:52.322Z,16.10
2023-08-05T22:38:40.541Z,16.10
2023-08-05T22:41:27.999Z,16.10
2023-08-05T22:44:18.559Z,16.00
2023-08-05T22:47:06.666Z,16.10
2023-08-05T22:49:54.234Z,16.10
2023-08-05T22:52:41.694Z,16.10
2023-08-05T22:55:29.249Z,16.10
2023-08-05T22:58:17.423Z,16.10
2023-08-05T23:01:06.305Z,16.10
2023-08-05T23:03:53.880Z,16.10
2023-08-05T23:06:41.346Z,16.00
2023-08-05T23:09:28.923Z,16.00
2023-08-05T23:12:16.738Z,16.00
2023-08-05T23:15:04.808Z,15.90
2023-08-05T23:17:52.495Z,15.90
2023-08-05T23:20:40.204Z,15.90
2023-08-05T23:23:27.719Z,15.90
2023-08-05T23:26:15.243Z,15.90
2023-08-05T23:29:02.780Z,15.90
2023-08-05T23:31:50.421Z,15.90
2023-08-05T23:34:38.110Z,15.80
2023-08-05T23:37:25.637Z,15.80
2023-08-05T23:40:13.130Z,15.80
2023-08-05T23:43:00.620Z,15.80
2023-08-05T23:45:50.550Z,15.80
2023-08-05T23:48:38.107Z,15.80
2023-08-05T23:51:25.658Z,15.80
2023-08-05T23:54:13.371Z,15.80
2023-08-05T23:57:00.931Z,15.80
2023-08-05T23:59:48.411Z,15.80
